Time;durP1;ratioP1;P1;durP2;ratioP2;P2;SDS_P1;SDS_P2;PMS_P1;PMS_P2;Temp;Humidity;BMP_temperature;BMP_pressure;BME280_temperature;BME280_humidity;BME280_pressure;Samples;Min_cycle;Max_cycle;Signal;HPM_P1;HPM_P2
2023/10/21 00:02:04;;;;;;;0.93;0.52;;;19.20;99.90;;;;;;5013092;28;20505;-83
2023/10/21 00:04:30;;;;;;;1.20;0.57;;;19.20;99.90;;;;;;5012627;28;20022;-83
2023/10/21 00:06:56;;;;;;;1.20;0.50;;;19.20;99.90;;;;;;5011420;28;20117;-83
2023/10/21 00:09:22;;;;;;;1.77;0.63;;;19.20;99.90;;;;;;5012062;28;20113;-83
2023/10/21 00:11:47;;;;;;;3.17;0.50;;;19.20;99.90;;;;;;5012436;28;20061;-84
2023/10/21 00:14:14;;;;;;;3.08;0.77;;;19.10;99.90;;;;;;5011247;28;20068;-84
2023/10/21 00:16:40;;;;;;;3.45;0.80;;;19.20;99.90;;;;;;5009250;28;20076;-83
2023/10/21 00:19:05;;;;;;;0.82;0.30;;;19.10;99.90;;;;;;5012260;28;20398;-83
2023/10/21 00:21:31;;;;;;;1.63;0.75;;;19.10;99.90;;;;;;5012648;28;20030;-83
2023/10/21 00:23:57;;;;;;;3.85;0.68;;;19.10;99.90;;;;;;5012052;28;20084;-83
2023/10/21 00:26:23;;;;;;;2.40;0.85;;;19.10;99.90;;;;;;5009314;28;20039;-82
2023/10/21 00:28:49;;;;;;;2.08;0.47;;;19.10;99.90;;;;;;5012170;28;20037;-82
2023/10/21 00:31:15;;;;;;;1.60;0.63;;;19.10;99.90;;;;;;5011960;28;20360;-83
2023/10/21 00:33:40;;;;;;;1.42;0.60;;;19.10;99.90;;;;;;5012271;28;20053;-82
2023/10/21 00:36:06;;;;;;;3.53;0.80;;;19.10;99.90;;;;;;5011639;28;20455;-87
2023/10/21 00:38:32;;;;;;;1.48;0.55;;;19.00;99.90;;;;;;5012636;28;20076;-87
2023/10/21 00:40:58;;;;;;;3.50;0.95;;;19.00;99.90;;;;;;5012280;28;20038;-86
2023/10/21 00:43:37;;;;;;;4.72;0.77;;;19.00;99.90;;;;;;5012339;28;20513;-85
2023/10/21 00:46:14;;;;;;;6.22;0.63;;;19.00;99.90;;;;;;5014070;28;20354;-87
2023/10/21 00:48:40;;;;;;;1.58;0.68;;;19.00;99.90;;;;;;5015882;28;20064;-85
2023/10/21 00:51:06;;;;;;;2.25;0.73;;;18.90;99.90;;;;;;5015399;28;20033;-85
2023/10/21 00:53:32;;;;;;;2.45;0.65;;;18.90;99.90;;;;;;5015929;28;20026;-86
2023/10/21 00:55:59;;;;;;;2.63;0.73;;;18.90;99.90;;;;;;5016079;28;20478;-86
2023/10/21 00:58:27;;;;;;;1.65;0.70;;;18.90;99.90;;;;;;5016230;28;20029;-85
2023/10/21 01:00:54;;;;;;;1.75;0.65;;;18.90;99.90;;;;;;5015927;28;20100;-86
2023/10/21 01:03:22;;;;;;;1.42;0.65;;;18.90;99.90;;;;;;5015458;28;20100;-85
2023/10/21 01:05:48;;;;;;;1.98;0.70;;;18.90;99.90;;;;;;5014993;28;20022;-83
2023/10/21 01:08:14;;;;;;;2.47;1.20;;;18.90;99.90;;;;;;5014726;28;20030;-81
2023/10/21 01:10:40;;;;;;;2.10;0.85;;;18.90;99.90;;;;;;5015428;28;20418;-82
2023/10/21 01:13:06;;;;;;;2.25;0.88;;;18.90;99.90;;;;;;5014161;28;20068;-83
2023/10/21 01:15:32;;;;;;;2.25;0.88;;;18.80;99.90;;;;;;5014949;28;20058;-82
2023/10/21 01:17:58;;;;;;;0.90;0.60;;;18.80;99.90;;;;;;5014768;28;20030;-84
2023/10/21 01:20:23;;;;;;;3.15;0.98;;;18.80;99.90;;;;;;5014619;28;20485;-83
2023/10/21 01:22:49;;;;;;;2.70;1.17;;;18.80;99.90;;;;;;5015022;28;20025;-84
2023/10/21 01:25:15;;;;;;;2.03;0.60;;;18.80;99.90;;;;;;5015021;28;20034;-84
2023/10/21 01:27:40;;;;;;;2.10;0.77;;;18.80;99.90;;;;;;5014219;28;20073;-87
2023/10/21 01:30:06;;;;;;;2.05;0.80;;;18.70;99.90;;;;;;5014952;28;20466;-85
2023/10/21 01:32:35;;;;;;;2.97;0.80;;;18.70;99.90;;;;;;5014146;28;20505;-84
2023/10/21 01:35:00;;;;;;;1.40;0.57;;;18.70;99.90;;;;;;5015086;28;20075;-84
2023/10/21 01:37:26;;;;;;;3.42;0.88;;;18.60;99.90;;;;;;5014796;28;20030;-85
2023/10/21 01:39:52;;;;;;;1.98;0.65;;;18.60;99.90;;;;;;5014716;28;20026;-86
2023/10/21 01:42:17;;;;;;;2.20;0.80;;;18.60;99.90;;;;;;5013690;28;20137;-86
2023/10/21 01:44:43;;;;;;;4.38;1.33;;;18.60;99.90;;;;;;5014369;28;20026;-86
2023/10/21 01:47:09;;;;;;;1.70;0.88;;;18.60;99.90;;;;;;5014859;28;20552;-88
2023/10/21 01:49:34;;;;;;;1.88;0.90;;;18.60;99.90;;;;;;5014621;28;20045;-88
2023/10/21 01:52:00;;;;;;;2.65;0.95;;;18.60;99.90;;;;;;5014903;28;20030;-88
2023/10/21 01:54:27;;;;;;;3.13;1.02;;;18.60;99.90;;;;;;5015174;28;20022;-88
2023/10/21 01:56:53;;;;;;;1.85;0.88;;;18.60;99.90;;;;;;5014553;28;20033;-88
2023/10/21 01:59:19;;;;;;;3.55;0.85;;;18.60;99.90;;;;;;5013851;28;20026;-84
2023/10/21 02:01:44;;;;;;;1.88;0.95;;;18.60;99.90;;;;;;5015104;28;20030;-88
2023/10/21 02:04:11;;;;;;;2.60;1.08;;;18.60;99.90;;;;;;5014420;28;20029;-87
2023/10/21 02:06:37;;;;;;;3.17;1.42;;;18.60;99.90;;;;;;5014737;28;20351;-86
2023/10/21 02:09:02;;;;;;;1.95;1.08;;;18.60;99.90;;;;;;5009881;28;20033;-86
2023/10/21 02:11:28;;;;;;;2.03;0.93;;;18.60;99.90;;;;;;5012553;28;20038;-86
2023/10/21 02:13:54;;;;;;;2.75;0.98;;;18.60;99.90;;;;;;5014486;28;20068;-86
2023/10/21 02:16:20;;;;;;;2.08;0.93;;;18.60;99.90;;;;;;5014289;28;20038;-86
2023/10/21 02:18:46;;;;;;;3.80;1.20;;;18.60;99.90;;;;;;5012204;28;20048;-87
2023/10/21 02:21:11;;;;;;;3.63;1.25;;;18.60;99.90;;;;;;5014328;28;20426;-86
2023/10/21 02:23:37;;;;;;;3.05;0.80;;;18.60;99.90;;;;;;5015048;28;20476;-87
2023/10/21 02:26:05;;;;;;;2.42;1.10;;;18.60;99.90;;;;;;5014466;28;20025;-86
2023/10/21 02:28:31;;;;;;;2.88;1.40;;;18.60;99.90;;;;;;5006321;28;20482;-86
2023/10/21 02:30:57;;;;;;;2.67;1.55;;;18.60;99.90;;;;;;5013533;28;20034;-85
2023/10/21 02:33:23;;;;;;;2.33;1.40;;;18.60;99.90;;;;;;5015117;28;20070;-86
2023/10/21 02:35:55;;;;;;;3.50;1.42;;;18.60;99.90;;;;;;5014959;28;20108;-86
2023/10/21 02:38:25;;;;;;;10.13;1.58;;;18.60;99.90;;;;;;5014972;28;20032;-86
2023/10/21 02:40:51;;;;;;;2.22;1.25;;;18.60;99.90;;;;;;5015242;28;20037;-85
2023/10/21 02:43:17;;;;;;;3.15;1.50;;;18.60;99.90;;;;;;4998668;28;20048;-84
2023/10/21 02:45:43;;;;;;;5.00;1.67;;;18.60;99.90;;;;;;5014331;28;20056;-91
2023/10/21 02:48:08;;;;;;;3.00;1.60;;;18.50;99.90;;;;;;5015384;28;20478;-90
2023/10/21 02:50:34;;;;;;;3.33;1.40;;;18.50;99.90;;;;;;5016136;28;20108;-91
2023/10/21 02:53:00;;;;;;;2.92;1.95;;;18.60;99.90;;;;;;5016172;28;20382;-89
2023/10/21 02:55:26;;;;;;;6.03;1.52;;;18.60;99.90;;;;;;5019718;28;20040;-89
2023/10/21 02:57:51;;;;;;;3.53;1.58;;;18.50;99.90;;;;;;5033103;28;20025;-89
2023/10/21 03:00:21;;;;;;;3.53;1.42;;;18.50;99.90;;;;;;5034486;28;20033;-89
2023/10/21 03:02:48;;;;;;;3.33;1.90;;;18.50;99.90;;;;;;5033435;28;20128;-88
2023/10/21 03:05:15;;;;;;;4.40;1.77;;;18.50;99.90;;;;;;5031253;28;20018;-89
2023/10/21 03:07:42;;;;;;;4.20;1.73;;;18.50;99.90;;;;;;5026401;28;20059;-88
2023/10/21 03:10:09;;;;;;;2.58;1.65;;;18.40;99.90;;;;;;5036245;28;20010;-89
2023/10/21 03:12:34;;;;;;;3.63;1.38;;;18.50;99.90;;;;;;5023425;28;20045;-86
2023/10/21 03:15:00;;;;;;;3.15;1.25;;;18.40;99.90;;;;;;5020238;28;20030;-86
2023/10/21 03:17:26;;;;;;;5.25;1.50;;;18.40;99.90;;;;;;5013953;28;20505;-85
2023/10/21 03:19:55;;;;;;;1.98;1.38;;;18.40;99.90;;;;;;5013421;28;20145;-89
2023/10/21 03:22:21;;;;;;;3.83;1.70;;;18.40;99.90;;;;;;5014984;28;20075;-88
2023/10/21 03:24:47;;;;;;;5.07;1.95;;;18.40;99.90;;;;;;5019544;28;20157;-88
2023/10/21 03:27:13;;;;;;;2.22;1.58;;;18.40;99.90;;;;;;5014912;28;20065;-89
2023/10/21 03:29:39;;;;;;;5.10;1.58;;;18.40;99.90;;;;;;5014402;28;20042;-90
2023/10/21 03:32:06;;;;;;;2.05;1.60;;;18.40;99.90;;;;;;5014611;28;20105;-90
2023/10/21 03:34:33;;;;;;;8.23;1.70;;;18.40;99.90;;;;;;5014083;28;20405;-90
2023/10/21 03:36:59;;;;;;;4.68;1.75;;;18.40;99.90;;;;;;5013607;28;20050;-89
2023/10/21 03:39:26;;;;;;;5.22;1.65;;;18.40;99.90;;;;;;5012799;28;20373;-91
2023/10/21 03:41:55;;;;;;;5.82;2.10;;;18.40;99.90;;;;;;5013948;28;20022;-88
2023/10/21 03:44:20;;;;;;;5.80;2.22;;;18.40;99.90;;;;;;5013838;28;20054;-87
2023/10/21 03:46:46;;;;;;;5.38;2.28;;;18.40;99.90;;;;;;5013564;28;20030;-87
2023/10/21 03:49:12;;;;;;;6.55;2.17;;;18.30;99.90;;;;;;5012070;28;20029;-87
2023/10/21 03:51:37;;;;;;;5.22;2.58;;;18.30;99.90;;;;;;5013891;28;20034;-88
2023/10/21 03:54:04;;;;;;;5.95;3.42;;;18.30;99.90;;;;;;5013376;28;20037;-87
2023/10/21 03:56:30;;;;;;;8.32;3.10;;;18.30;99.90;;;;;;5007586;28;20083;-88
2023/10/21 03:58:56;;;;;;;5.22;3.00;;;18.30;99.90;;;;;;5013075;28;20029;-86
2023/10/21 04:01:22;;;;;;;7.50;4.10;;;18.30;99.90;;;;;;5013420;28;20041;-87
2023/10/21 04:03:48;;;;;;;7.25;3.33;;;18.40;99.90;;;;;;5012610;28;20394;-88
2023/10/21 04:06:15;;;;;;;6.80;3.83;;;18.30;99.90;;;;;;5021606;28;20022;-89
2023/10/21 04:08:41;;;;;;;6.78;3.67;;;18.30;99.90;;;;;;5012662;28;20502;-86
2023/10/21 04:11:08;;;;;;;7.97;3.80;;;18.30;99.90;;;;;;5010493;28;20117;-87
2023/10/21 04:13:37;;;;;;;5.75;4.22;;;18.30;99.90;;;;;;5012745;28;20029;-87
2023/10/21 04:16:03;;;;;;;7.38;4.03;;;18.30;99.90;;;;;;5012792;28;20053;-87
2023/10/21 04:18:29;;;;;;;6.05;4.22;;;18.30;99.90;;;;;;5013124;28;20041;-88
2023/10/21 04:20:55;;;;;;;6.45;4.15;;;18.30;99.90;;;;;;5015608;28;20022;-87
2023/10/21 04:23:21;;;;;;;5.72;4.43;;;18.30;99.90;;;;;;5017792;28;20528;-89
2023/10/21 04:25:47;;;;;;;6.78;4.07;;;18.30;99.90;;;;;;5016828;28;20064;-87
2023/10/21 04:28:13;;;;;;;6.65;4.65;;;18.30;99.90;;;;;;5016835;28;20033;-88
2023/10/21 04:30:38;;;;;;;6.68;4.53;;;18.30;99.90;;;;;;5017039;28;20046;-87
2023/10/21 04:33:04;;;;;;;7.13;4.00;;;18.30;99.90;;;;;;5016504;28;20386;-88
2023/10/21 04:35:31;;;;;;;9.23;4.95;;;18.30;99.90;;;;;;5015750;28;20036;-86
2023/10/21 04:37:59;;;;;;;8.05;4.60;;;18.30;99.90;;;;;;5015437;28;20140;-86
2023/10/21 04:40:24;;;;;;;11.38;5.30;;;18.30;99.90;;;;;;5015198;28;20025;-87
2023/10/21 04:42:50;;;;;;;7.57;4.60;;;18.30;99.90;;;;;;5016284;28;20033;-88
2023/10/21 04:45:16;;;;;;;6.22;4.22;;;18.30;99.90;;;;;;5016156;28;20014;-86
2023/10/21 04:47:41;;;;;;;6.72;4.35;;;18.30;99.90;;;;;;5015938;28;20076;-85
2023/10/21 04:50:07;;;;;;;6.20;4.20;;;18.30;99.90;;;;;;5016159;28;20061;-84
2023/10/21 04:52:33;;;;;;;7.05;4.50;;;18.30;99.90;;;;;;5014835;28;20032;-83
2023/10/21 04:55:00;;;;;;;6.70;4.47;;;18.30;99.90;;;;;;5015701;28;20223;-85
2023/10/21 04:57:26;;;;;;;6.35;4.18;;;18.30;99.90;;;;;;5005330;28;20402;-85
2023/10/21 04:59:51;;;;;;;7.53;4.50;;;18.30;99.90;;;;;;5014434;28;20026;-86
2023/10/21 05:02:17;;;;;;;6.38;4.28;;;18.30;99.90;;;;;;5015528;28;20022;-85
2023/10/21 05:04:42;;;;;;;8.55;5.07;;;18.30;99.90;;;;;;5014856;28;20018;-85
2023/10/21 05:07:08;;;;;;;8.32;5.55;;;18.30;99.90;;;;;;5014248;28;20112;-85
2023/10/21 05:09:34;;;;;;;6.70;4.97;;;18.30;99.90;;;;;;5014217;28;20030;-88
2023/10/21 05:12:00;;;;;;;12.07;4.63;;;18.30;99.90;;;;;;5016036;28;20041;-87
2023/10/21 05:14:26;;;;;;;7.65;4.85;;;18.30;99.90;;;;;;5013805;28;20809;-86
2023/10/21 05:16:51;;;;;;;8.18;4.85;;;18.30;99.90;;;;;;5014798;28;20031;-83
2023/10/21 05:19:17;;;;;;;9.43;4.60;;;18.30;99.90;;;;;;5015740;28;20114;-89
2023/10/21 05:21:43;;;;;;;9.18;5.00;;;18.30;99.90;;;;;;5016320;28;20176;-90
2023/10/21 05:24:09;;;;;;;5.10;3.88;;;18.30;99.90;;;;;;5015882;28;20018;-89
2023/10/21 05:26:36;;;;;;;7.35;4.50;;;18.30;99.90;;;;;;5015773;28;20505;-87
2023/10/21 05:29:02;;;;;;;6.20;4.38;;;18.30;99.90;;;;;;5015524;28;20128;-90
2023/10/21 05:31:28;;;;;;;6.82;4.25;;;18.30;99.90;;;;;;5015345;28;20091;-89
2023/10/21 05:33:57;;;;;;;7.93;4.43;;;18.30;99.90;;;;;;5014340;28;20026;-92
2023/10/21 05:36:26;;;;;;;6.68;4.30;;;18.20;99.90;;;;;;5013638;28;20453;-90
2023/10/21 05:38:51;;;;;;;7.78;5.20;;;18.30;99.90;;;;;;5014120;28;20026;-91
2023/10/21 05:41:17;;;;;;;7.97;5.00;;;18.30;99.90;;;;;;5015529;28;20036;-95
2023/10/21 05:43:45;;;;;;;6.75;4.40;;;18.30;99.90;;;;;;5016605;28;20429;-94
2023/10/21 05:46:11;;;;;;;6.93;4.60;;;18.30;99.90;;;;;;5014862;28;20522;-95
2023/10/21 05:48:36;;;;;;;7.32;4.80;;;18.30;99.90;;;;;;5019183;28;20113;-93
2023/10/21 05:51:03;;;;;;;6.40;4.72;;;18.30;99.90;;;;;;5014714;28;20037;-93
2023/10/21 05:53:29;;;;;;;7.45;4.57;;;18.30;99.90;;;;;;5015650;28;20140;-91
2023/10/21 05:55:56;;;;;;;9.80;4.68;;;18.30;99.90;;;;;;5014838;28;20522;-84
2023/10/21 05:58:23;;;;;;;5.78;4.47;;;18.30;99.90;;;;;;5014184;28;20121;-86
2023/10/21 06:00:49;;;;;;;6.72;5.30;;;18.30;99.90;;;;;;5014486;28;20045;-85
2023/10/21 06:03:14;;;;;;;7.95;4.55;;;18.30;99.90;;;;;;5013028;28;20038;-85
2023/10/21 06:05:41;;;;;;;5.18;4.55;;;18.30;99.90;;;;;;5011711;28;20034;-85
2023/10/21 06:08:07;;;;;;;7.65;5.60;;;18.20;99.90;;;;;;5010769;28;20034;-86
2023/10/21 06:10:34;;;;;;;8.82;6.38;;;18.20;99.90;;;;;;5010476;28;20041;-85
2023/10/21 06:13:00;;;;;;;7.97;5.20;;;18.10;99.90;;;;;;5007722;28;20036;-84
2023/10/21 06:15:27;;;;;;;12.02;5.90;;;18.10;99.90;;;;;;5006397;28;20034;-83
2023/10/21 06:17:53;;;;;;;8.50;5.85;;;18.10;99.90;;;;;;5005953;28;20026;-83
2023/10/21 06:20:19;;;;;;;7.03;5.28;;;18.10;99.90;;;;;;5013124;28;20030;-81
2023/10/21 06:22:44;;;;;;;8.93;5.40;;;18.20;99.90;;;;;;5014239;28;20018;-81
2023/10/21 06:25:10;;;;;;;7.47;5.80;;;18.30;99.90;;;;;;5014264;28;20026;-81
2023/10/21 06:27:37;;;;;;;7.82;5.18;;;18.30;99.90;;;;;;5010382;28;20052;-82
2023/10/21 06:30:06;;;;;;;7.07;5.22;;;18.30;99.90;;;;;;5013718;28;20140;-82
2023/10/21 06:32:32;;;;;;;9.02;5.60;;;18.30;99.90;;;;;;5012708;28;20030;-82
2023/10/21 06:34:57;;;;;;;7.05;5.45;;;18.30;99.90;;;;;;5012044;28;20127;-82
2023/10/21 06:37:23;;;;;;;9.93;5.30;;;18.40;99.90;;;;;;5011505;28;20025;-82
2023/10/21 06:39:49;;;;;;;9.35;5.13;;;18.40;99.90;;;;;;5013976;28;20034;-81
2023/10/21 06:42:15;;;;;;;7.05;5.10;;;18.40;99.90;;;;;;5012332;28;20030;-82
2023/10/21 06:44:41;;;;;;;6.38;4.57;;;18.40;99.90;;;;;;5009172;28;20034;-81
2023/10/21 06:47:07;;;;;;;7.90;5.05;;;18.40;99.90;;;;;;5013254;28;20048;-81
2023/10/21 06:49:32;;;;;;;5.68;4.60;;;18.50;99.90;;;;;;5012115;28;20530;-87
2023/10/21 06:51:58;;;;;;;6.18;4.60;;;18.50;99.90;;;;;;5012264;28;20525;-86
2023/10/21 06:54:24;;;;;;;5.72;4.50;;;18.50;99.90;;;;;;5012818;28;20083;-86
2023/10/21 06:56:50;;;;;;;4.15;3.30;;;18.50;99.90;;;;;;5012941;28;20061;-87
2023/10/21 06:59:16;;;;;;;8.50;4.55;;;18.50;99.90;;;;;;5002215;28;20463;-86
2023/10/21 07:01:42;;;;;;;7.90;4.47;;;18.50;99.90;;;;;;5008795;28;20030;-82
2023/10/21 07:04:10;;;;;;;7.70;3.65;;;18.50;99.90;;;;;;5012116;28;20050;-83
2023/10/21 07:06:38;;;;;;;6.97;4.20;;;18.50;99.90;;;;;;5013235;28;20068;-83
2023/10/21 07:09:04;;;;;;;12.43;4.22;;;18.60;99.90;;;;;;5011952;28;20034;-82
2023/10/21 07:11:30;;;;;;;8.70;3.45;;;18.60;99.90;;;;;;5012022;28;20056;-86
2023/10/21 07:13:56;;;;;;;5.05;3.25;;;18.70;99.90;;;;;;5011092;28;20446;-85
2023/10/21 07:16:22;;;;;;;6.28;3.08;;;18.70;99.90;;;;;;5010106;28;20048;-85
2023/10/21 07:18:48;;;;;;;5.03;2.95;;;18.80;99.90;;;;;;5011057;28;20038;-85
2023/10/21 07:21:13;;;;;;;5.25;2.90;;;18.80;99.90;;;;;;5010803;28;20486;-80
2023/10/21 07:23:40;;;;;;;7.22;2.90;;;18.80;99.90;;;;;;5013349;28;20180;-81
2023/10/21 07:26:06;;;;;;;4.57;2.80;;;18.80;99.90;;;;;;5012078;28;20025;-81
2023/10/21 07:28:33;;;;;;;8.23;3.30;;;18.80;99.90;;;;;;5010942;28;20022;-81
2023/10/21 07:31:00;;;;;;;3.10;2.55;;;18.90;99.90;;;;;;5005180;28;20505;-81
2023/10/21 07:33:26;;;;;;;3.88;2.58;;;18.90;99.90;;;;;;5012925;28;20448;-81
2023/10/21 07:35:52;;;;;;;4.25;2.20;;;18.90;99.90;;;;;;5012908;28;20446;-81
2023/10/21 07:38:19;;;;;;;3.30;2.40;;;18.90;99.90;;;;;;5012684;28;20026;-81
2023/10/21 07:40:45;;;;;;;4.43;2.45;;;19.00;99.90;;;;;;5012941;28;20030;-81
2023/10/21 07:43:11;;;;;;;3.30;2.20;;;19.10;99.90;;;;;;5012789;28;20363;-81
2023/10/21 07:45:40;;;;;;;7.22;2.92;;;19.00;99.90;;;;;;5013600;28;20108;-80
2023/10/21 07:48:07;;;;;;;3.33;1.93;;;19.10;99.90;;;;;;5009050;28;20116;-80
2023/10/21 07:50:32;;;;;;;5.00;1.85;;;19.10;99.90;;;;;;5009129;28;21024;-80
2023/10/21 07:52:58;;;;;;;4.90;2.50;;;19.10;99.90;;;;;;5010629;28;20117;-80
2023/10/21 07:55:24;;;;;;;5.97;1.73;;;19.10;99.90;;;;;;5016654;28;20026;-81
2023/10/21 07:57:50;;;;;;;5.22;1.92;;;19.20;99.90;;;;;;5015394;28;20026;-80
2023/10/21 08:00:16;;;;;;;6.70;1.45;;;19.20;99.90;;;;;;5014659;28;20014;-85
2023/10/21 08:02:42;;;;;;;6.45;2.35;;;19.40;99.90;;;;;;5017046;28;20072;-85
2023/10/21 08:05:08;;;;;;;8.23;1.65;;;19.50;99.90;;;;;;5013108;28;20021;-86
2023/10/21 08:07:35;;;;;;;2.47;1.35;;;19.60;99.90;;;;;;5014895;28;20038;-85
2023/10/21 08:10:04;;;;;;;4.70;1.80;;;19.70;99.90;;;;;;5013350;28;20088;-84
2023/10/21 08:12:32;;;;;;;3.95;2.10;;;19.80;99.90;;;;;;5016191;28;20040;-86
2023/10/21 08:14:58;;;;;;;4.90;1.90;;;19.90;99.90;;;;;;5016275;28;20112;-86
2023/10/21 08:17:24;;;;;;;3.22;1.77;;;20.00;99.90;;;;;;5009711;28;20125;-86
2023/10/21 08:19:50;;;;;;;2.95;1.60;;;20.00;99.90;;;;;;5013737;28;20045;-86
2023/10/21 08:22:16;;;;;;;5.28;1.60;;;20.10;99.90;;;;;;5015104;28;20026;-86
2023/10/21 08:24:41;;;;;;;4.45;2.25;;;20.20;99.90;;;;;;5004561;28;20027;-85
2023/10/21 08:27:07;;;;;;;6.50;1.92;;;20.20;99.90;;;;;;5013777;28;20029;-83
2023/10/21 08:29:33;;;;;;;4.15;2.13;;;20.30;99.90;;;;;;5015525;28;20058;-82
2023/10/21 08:31:58;;;;;;;5.32;2.35;;;20.30;99.90;;;;;;5014387;28;20061;-81
2023/10/21 08:34:24;;;;;;;6.32;2.50;;;20.40;99.90;;;;;;5016272;28;20029;-82
2023/10/21 08:36:50;;;;;;;4.88;1.98;;;20.40;99.90;;;;;;5013244;28;20048;-81
2023/10/21 08:39:15;;;;;;;4.88;1.98;;;20.50;99.90;;;;;;5015199;28;20062;-82
2023/10/21 08:41:41;;;;;;;6.65;1.95;;;20.40;99.90;;;;;;5015818;28;20398;-81
2023/10/21 08:44:08;;;;;;;5.68;2.25;;;20.40;99.90;;;;;;5015301;28;20508;-80
2023/10/21 08:46:35;;;;;;;4.00;2.08;;;20.40;99.90;;;;;;5012847;28;20422;-79
2023/10/21 08:49:03;;;;;;;4.53;2.17;;;20.40;99.90;;;;;;5014616;28;20054;-80
2023/10/21 08:51:30;;;;;;;4.82;1.70;;;20.40;99.90;;;;;;5015508;28;20025;-80
2023/10/21 08:54:03;;;;;;;7.38;1.90;;;20.40;99.90;;;;;;5015957;28;20036;-85
2023/10/21 08:56:29;;;;;;;4.10;1.60;;;20.40;99.90;;;;;;5016579;28;20029;-85
2023/10/21 08:58:56;;;;;;;8.85;1.70;;;20.40;99.90;;;;;;4998979;28;20022;-85
2023/10/21 09:01:23;;;;;;;6.05;1.77;;;20.40;99.90;;;;;;5013147;28;20056;-86
2023/10/21 09:03:49;;;;;;;2.92;1.40;;;20.40;99.90;;;;;;5013756;28;20032;-85
2023/10/21 09:06:17;;;;;;;3.50;1.52;;;20.40;99.90;;;;;;5013877;28;20022;-85
2023/10/21 09:08:44;;;;;;;3.90;1.80;;;20.40;99.90;;;;;;5012764;28;20053;-86
2023/10/21 09:11:14;;;;;;;6.35;1.95;;;20.40;99.90;;;;;;4999593;28;20146;-84
2023/10/21 09:13:41;;;;;;;7.50;2.00;;;20.40;99.90;;;;;;5008523;28;20437;-82
2023/10/21 09:16:23;;;;;;;4.00;1.70;;;20.40;99.90;;;;;;5015481;28;20022;-82
2023/10/21 09:19:06;;;;;;;4.88;1.65;;;20.40;99.90;;;;;;5008303;28;20089;-83
2023/10/21 09:21:41;;;;;;;4.50;1.52;;;20.50;99.90;;;;;;5012084;28;20478;-82
2023/10/21 09:24:11;;;;;;;5.22;1.90;;;20.60;99.90;;;;;;5013503;28;20026;-83
2023/10/21 09:26:45;;;;;;;;;;;20.60;99.90;;;;;;5014892;28;20034;-83
2023/10/21 09:29:19;;;;;;;5.43;1.85;;;20.70;99.90;;;;;;5010567;28;19953;-83
2023/10/21 09:31:53;;;;;;;2.00;1.20;;;20.70;99.90;;;;;;5015159;28;20121;-83
2023/10/21 09:34:32;;;;;;;3.50;1.33;;;20.80;99.90;;;;;;5010211;28;20445;-83
2023/10/21 09:37:05;;;;;;;5.05;1.70;;;20.80;99.90;;;;;;5014741;28;20034;-83
2023/10/21 09:39:41;;;;;;;4.68;1.30;;;20.90;99.90;;;;;;5014166;28;20059;-82
2023/10/21 09:42:09;;;;;;;5.00;1.98;;;20.90;99.90;;;;;;5013657;28;20403;-81
2023/10/21 09:44:35;;;;;;;7.32;1.77;;;20.90;99.90;;;;;;5015607;28;20018;-81
2023/10/21 09:47:05;;;;;;;4.75;1.38;;;21.00;99.90;;;;;;5013670;28;20164;-79
2023/10/21 09:49:39;;;;;;;4.40;1.70;;;21.10;99.90;;;;;;5017777;28;20033;-82
2023/10/21 09:52:09;;;;;;;4.10;1.70;;;21.20;99.90;;;;;;5003175;28;20108;-83
2023/10/21 09:54:52;;;;;;;4.63;1.27;;;21.40;99.90;;;;;;5012193;28;20030;-84
2023/10/21 09:57:19;;;;;;;10.48;1.42;;;21.70;99.90;;;;;;5014475;28;20117;-81
2023/10/21 09:59:46;;;;;;;4.38;1.40;;;22.00;99.90;;;;;;5014497;28;20076;-81
2023/10/21 10:02:12;;;;;;;5.82;1.08;;;22.30;99.90;;;;;;5014729;28;20045;-81
2023/10/21 10:04:39;;;;;;;4.78;1.67;;;22.50;99.60;;;;;;5012552;28;20539;-81
2023/10/21 10:07:08;;;;;;;3.90;1.25;;;22.70;98.60;;;;;;5012673;28;20026;-81
2023/10/21 10:09:39;;;;;;;2.47;1.20;;;23.00;98.60;;;;;;5014114;28;20025;-81
2023/10/21 10:12:29;;;;;;;2.42;1.00;;;23.10;98.30;;;;;;5013011;28;20076;-81
2023/10/21 10:14:54;;;;;;;6.43;1.73;;;23.40;98.00;;;;;;5013761;28;20025;-81
2023/10/21 10:17:51;;;;;;;8.60;1.27;;;23.60;97.60;;;;;;5011479;28;20348;-81
2023/10/21 10:20:23;;;;;;;1.83;0.73;;;23.80;97.10;;;;;;5014324;28;20113;-81
2023/10/21 10:23:01;;;;;;;4.65;1.10;;;24.00;96.70;;;;;;5010518;28;20022;-81
2023/10/21 10:25:34;;;;;;;4.40;1.00;;;24.10;96.10;;;;;;5012822;28;20018;-81
2023/10/21 10:28:04;;;;;;;2.83;1.20;;;24.30;96.00;;;;;;5012572;28;20532;-81
2023/10/21 10:30:38;;;;;;;4.45;1.00;;;24.40;95.90;;;;;;5002836;28;20092;-81
2023/10/21 10:33:12;;;;;;;2.03;0.70;;;24.60;95.50;;;;;;5011920;28;20040;-81
2023/10/21 10:35:54;;;;;;;4.10;0.98;;;24.80;94.90;;;;;;5002174;28;20080;-82
2023/10/21 10:38:26;;;;;;;3.55;1.15;;;25.00;93.50;;;;;;5011210;28;20065;-81
2023/10/21 10:41:15;;;;;;;4.43;0.82;;;25.00;93.00;;;;;;5012498;28;20084;-81
2023/10/21 10:43:44;;;;;;;2.07;0.73;;;25.10;93.30;;;;;;4995567;28;20419;-81
2023/10/21 10:46:17;;;;;;;3.72;0.93;;;25.20;93.30;;;;;;5000731;28;20426;-82
2023/10/21 10:48:43;;;;;;;4.85;0.90;;;25.20;92.40;;;;;;5013107;28;20038;-82
2023/10/21 10:51:21;;;;;;;2.00;0.90;;;25.20;92.80;;;;;;5013756;28;20535;-82
2023/10/21 10:53:54;;;;;;;2.70;0.88;;;25.20;92.80;;;;;;5014100;28;20054;-82
2023/10/21 10:56:20;;;;;;;2.97;1.00;;;25.20;92.00;;;;;;5010171;28;20038;-81
2023/10/21 10:58:46;;;;;;;3.05;1.00;;;25.10;91.20;;;;;;5009441;28;20470;-81
2023/10/21 11:01:28;;;;;;;2.47;0.85;;;25.10;91.70;;;;;;5013329;28;20038;-82
2023/10/21 11:04:01;;;;;;;5.28;1.30;;;25.30;92.10;;;;;;5003670;28;20105;-83
2023/10/21 11:06:31;;;;;;;4.55;0.82;;;25.40;92.00;;;;;;4989315;28;20045;-85
2023/10/21 11:08:58;;;;;;;2.53;0.80;;;25.60;91.80;;;;;;4997107;28;20375;-87
2023/10/21 11:11:27;;;;;;;4.55;1.17;;;25.70;91.80;;;;;;5011379;28;20034;-86
2023/10/21 11:13:59;;;;;;;3.22;1.10;;;25.80;91.30;;;;;;5012563;28;20034;-85
2023/10/21 11:16:26;;;;;;;3.85;1.00;;;26.00;91.00;;;;;;5009299;28;20096;-85
2023/10/21 11:18:52;;;;;;;5.30;1.15;;;26.20;90.90;;;;;;5008850;28;20026;-88
2023/10/21 11:21:17;;;;;;;3.72;0.85;;;26.50;90.70;;;;;;5013148;28;20037;-88
2023/10/21 11:23:45;;;;;;;2.92;1.13;;;26.80;90.40;;;;;;5010540;28;20026;-88
2023/10/21 11:26:13;;;;;;;5.28;1.00;;;27.10;90.20;;;;;;5009997;28;20033;-87
2023/10/21 11:28:39;;;;;;;6.70;0.90;;;27.60;88.90;;;;;;5012502;28;20069;-88
2023/10/21 11:31:08;;;;;;;9.55;1.42;;;27.90;88.20;;;;;;5010827;28;20037;-88
2023/10/21 11:33:33;;;;;;;2.63;1.35;;;28.30;86.80;;;;;;5013341;28;20077;-89
2023/10/21 11:36:02;;;;;;;2.80;0.85;;;28.60;85.80;;;;;;5011798;28;20037;-88
2023/10/21 11:38:28;;;;;;;4.28;1.58;;;28.90;85.00;;;;;;5012000;28;20034;-89
2023/10/21 11:41:01;;;;;;;7.68;1.15;;;29.00;84.30;;;;;;5013298;28;20054;-89
2023/10/21 11:43:28;;;;;;;6.60;1.15;;;29.20;83.10;;;;;;5010968;28;20037;-88
2023/10/21 11:45:55;;;;;;;4.70;0.98;;;29.20;81.10;;;;;;5009423;28;20036;-88
2023/10/21 11:48:20;;;;;;;3.20;1.05;;;29.00;80.70;;;;;;5011582;28;20036;-88
2023/10/21 11:50:46;;;;;;;5.43;1.20;;;28.80;81.10;;;;;;5008407;28;20406;-88
2023/10/21 11:53:13;;;;;;;3.72;0.77;;;28.70;81.20;;;;;;5012520;28;20030;-89
2023/10/21 12:40:39;;;;;;;2.47;0.90;;;31.40;69.90;;;;;;5008155;28;20385;-87
2023/10/21 12:45:46;;;;;;;1.67;0.70;;;31.90;66.90;;;;;;5015786;28;20041;-88
2023/10/21 12:48:18;;;;;;;1.80;0.77;;;32.10;66.90;;;;;;5014751;28;20022;-89
2023/10/21 12:50:50;;;;;;;5.10;1.08;;;32.20;65.60;;;;;;5017931;28;20046;-88
2023/10/21 12:53:17;;;;;;;2.15;0.80;;;32.10;64.70;;;;;;5021798;28;20029;-88
2023/10/21 12:55:44;;;;;;;3.00;1.23;;;31.70;65.80;;;;;;5030652;28;20479;-88
2023/10/21 12:58:10;;;;;;;5.40;1.17;;;31.20;66.10;;;;;;5020058;28;20022;-89
2023/10/21 13:00:37;;;;;;;4.13;0.98;;;30.60;66.90;;;;;;4996081;28;20113;-89
2023/10/21 13:03:10;;;;;;;3.60;0.80;;;30.10;67.90;;;;;;5006302;28;20026;-87
2023/10/21 13:05:37;;;;;;;3.75;0.90;;;29.50;68.30;;;;;;5016846;28;20076;-92
2023/10/21 13:08:07;;;;;;;2.28;0.80;;;28.90;69.60;;;;;;5016033;28;20022;-87
2023/10/21 13:10:34;;;;;;;3.42;0.93;;;28.50;70.60;;;;;;5004369;28;20034;-92
2023/10/21 13:13:01;;;;;;;5.00;1.10;;;28.10;71.80;;;;;;5011364;28;20037;-88
2023/10/21 13:15:27;;;;;;;4.50;1.02;;;27.80;73.00;;;;;;4996266;28;20061;-88
2023/10/21 13:17:52;;;;;;;4.65;1.23;;;27.50;73.30;;;;;;4998634;28;20117;-88
2023/10/21 13:20:18;;;;;;;5.13;0.90;;;27.30;74.10;;;;;;5014977;28;20110;-86
2023/10/21 13:22:45;;;;;;;2.15;0.80;;;27.10;74.50;;;;;;5015154;28;20030;-87
2023/10/21 13:25:13;;;;;;;3.65;0.98;;;26.90;75.30;;;;;;5002444;28;20450;-87
2023/10/21 13:27:42;;;;;;;3.72;1.02;;;26.70;76.20;;;;;;5012176;28;20493;-87
2023/10/21 13:30:15;;;;;;;4.18;1.00;;;26.50;76.60;;;;;;5026558;28;20064;-85
2023/10/21 13:32:48;;;;;;;3.92;1.10;;;26.30;76.70;;;;;;5017779;28;20038;-86
2023/10/21 13:35:15;;;;;;;3.85;0.77;;;26.20;76.90;;;;;;5033738;28;20150;-86
2023/10/21 13:37:43;;;;;;;4.80;1.35;;;26.00;77.70;;;;;;5014527;28;20149;-86